Terminal Aerodrome Forecast
Issued by NWS

Home | Current Version | Previous Version | Text Only | Print | Product List | Glossary Off
Versions: 1 2 3 4 5 6 7 8 9 10 11 12 13 14 15

000
FTUS45 KGGW 111400 AAA
TAFSDY
TAF AMD
KSDY 111449Z 1115/1212 VRB06KT P6SM -SHRA SCT120
     FM111800 36011KT P6SM SCT100
     FM120300 VRB06KT P6SM SCT100
     FM120600 VRB04KT P6SM BKN090
      AMD LTD TO CLD VIS AND WIND=

USA.gov is the U.S. government's official web portal to all federal, state and local government web resources and services.